createdAt,value
2019-04-26T00:00:42.016Z,100455.68
2019-04-26T00:03:18.590Z,100464.60
2019-04-26T00:05:50.613Z,100454.91
2019-04-26T00:08:20.823Z,100454.56
2019-04-26T00:11:01.436Z,100449.88
2019-04-26T00:13:49.874Z,100450.13
2019-04-26T00:16:31.301Z,100455.41
2019-04-26T00:19:01.723Z,100450.48
2019-04-26T00:21:32.586Z,100456.70
2019-04-26T00:24:03.908Z,100444.59
2019-04-26T00:26:34.936Z,100448.98
2019-04-26T00:29:05.449Z,100444.84
2019-04-26T00:31:35.726Z,100437.11
2019-04-26T00:34:05.921Z,100429.34
2019-04-26T00:36:36.605Z,100432.34
2019-04-26T00:39:08.405Z,100422.92
2019-04-26T00:41:39.601Z,100426.30
2019-04-26T00:44:09.970Z,100427.64
2019-04-26T00:46:41.818Z,100415.69
2019-04-26T00:49:13.822Z,100408.77
2019-04-26T00:51:44.805Z,100403.66
2019-04-26T00:54:15.481Z,100408.42
2019-04-26T00:56:45.778Z,100403.03
2019-04-26T00:59:16.523Z,100396.16
2019-04-26T01:01:50.406Z,100399.89
2019-04-26T01:04:20.994Z,100398.20
2019-04-26T01:06:53.749Z,100397.39
2019-04-26T01:09:25.656Z,100388.58
2019-04-26T01:11:56.503Z,100388.54
2019-04-26T01:14:26.829Z,100389.08
2019-04-26T01:16:57.173Z,100391.77
2019-04-26T01:19:27.601Z,100378.27
2019-04-26T01:22:01.223Z,100379.50
2019-04-26T01:24:35.032Z,100380.73
2019-04-26T01:27:05.609Z,100376.55
2019-04-26T01:29:38.852Z,100370.05
2019-04-26T01:32:11.716Z,100368.85
2019-04-26T01:34:42.249Z,100370.89
2019-04-26T01:37:12.782Z,100368.89
2019-04-26T01:39:49.439Z,100367.13
2019-04-26T01:42:47.736Z,100369.47
2019-04-26T01:45:23.659Z,100374.32
2019-04-26T01:47:56.397Z,100380.85
2019-04-26T01:50:28.213Z,100380.85
2019-04-26T01:52:59.950Z,100407.03
2019-04-26T01:55:31.554Z,100433.52
2019-04-26T01:58:04.900Z,100445.78
2019-04-26T02:00:52.890Z,100451.27
2019-04-26T02:03:26.516Z,100448.61
2019-04-26T02:05:57.736Z,100431.95
2019-04-26T02:08:28.894Z,100410.39
2019-04-26T02:10:59.666Z,100395.39
2019-04-26T02:13:30.946Z,100413.97
2019-04-26T02:16:01.283Z,100426.00
2019-04-26T02:18:33.601Z,100429.54
2019-04-26T02:21:20.261Z,100419.42
2019-04-26T02:24:00.837Z,100409.30
2019-04-26T02:26:43.020Z,100388.16
2019-04-26T02:29:18.987Z,100388.12
2019-04-26T02:31:52.891Z,100395.20
2019-04-26T02:34:23.534Z,100402.63
2019-04-26T02:36:58.889Z,100416.16
2019-04-26T02:39:33.958Z,100408.73
2019-04-26T02:42:07.386Z,100410.16
2019-04-26T02:44:55.929Z,100391.67
2019-04-26T02:48:03.017Z,100386.97
2019-04-26T02:50:39.545Z,100384.39
2019-04-26T02:53:42.839Z,100378.86
2019-04-26T02:56:22.735Z,100378.44
2019-04-26T02:59:40.106Z,100392.35
2019-04-26T03:02:23.513Z,100399.81
2019-04-26T03:04:58.447Z,100406.16
2019-04-26T03:08:01.951Z,100412.19
2019-04-26T03:10:38.084Z,100406.81
2019-04-26T03:13:12.344Z,100394.47
2019-04-26T03:16:12.145Z,100390.43
2019-04-26T03:19:05.320Z,100397.69
2019-04-26T03:21:57.371Z,100404.45
2019-04-26T03:24:39.272Z,100394.05
2019-04-26T03:27:26.107Z,100406.98
2019-04-26T03:30:19.914Z,100392.35
2019-04-26T03:33:00.902Z,100397.39
2019-04-26T03:36:09.505Z,100388.59
2019-04-26T03:39:00.377Z,100382.81
2019-04-26T03:42:05.902Z,100399.58
2019-04-26T03:44:45.243Z,100391.17
2019-04-26T03:47:19.856Z,100389.33
2019-04-26T03:50:13.366Z,100382.81
2019-04-26T03:53:21.107Z,100387.33
2019-04-26T03:56:25.481Z,100382.86
2019-04-26T03:59:15.915Z,100381.91
2019-04-26T04:02:22.547Z,100379.81
2019-04-26T04:05:10.432Z,100388.36
2019-04-26T04:07:48.054Z,100393.76
2019-04-26T04:10:18.980Z,100393.76
2019-04-26T04:13:40.850Z,100393.47
2019-04-26T04:17:09.340Z,100391.92
2019-04-26T04:20:25.472Z,100386.53
2019-04-26T04:23:19.115Z,100391.71
2019-04-26T04:25:51.106Z,100396.46
2019-04-26T04:28:42.198Z,100388.84
2019-04-26T04:31:17.333Z,100393.59
2019-04-26T04:34:02.057Z,100375.19
2019-04-26T04:36:48.875Z,100375.19
2019-04-26T04:39:29.579Z,100371.31
2019-04-26T04:42:43.675Z,100370.22
2019-04-26T04:46:11.238Z,100370.31
2019-04-26T04:49:13.712Z,100371.75
2019-04-26T04:51:57.977Z,100371.75
2019-04-26T04:54:39.647Z,100376.77
2019-04-26T04:57:56.836Z,100382.50
2019-04-26T05:01:17.278Z,100378.98
2019-04-26T05:03:59.157Z,100376.49
2019-04-26T05:07:26.917Z,100382.05
2019-04-26T05:10:32.061Z,100381.06
2019-04-26T05:13:31.937Z,100366.55
2019-04-26T05:16:50.689Z,100364.01
2019-04-26T05:20:05.407Z,100362.63
2019-04-26T05:22:53.576Z,100345.87
2019-04-26T05:26:33.114Z,100345.87
2019-04-26T05:29:46.501Z,100339.42
2019-04-26T05:32:52.647Z,100340.53
2019-04-26T05:35:46.237Z,100337.09
2019-04-26T05:39:00.106Z,100330.55
2019-04-26T05:42:07.629Z,100321.72
2019-04-26T05:45:08.238Z,100324.06
2019-04-26T05:48:12.057Z,100326.54
2019-04-26T05:51:36.296Z,100325.83
2019-04-26T05:55:02.664Z,100325.81
2019-04-26T05:58:06.545Z,100315.80
2019-04-26T06:01:34.989Z,100327.22
2019-04-26T06:04:36.706Z,100334.06
2019-04-26T06:08:08.109Z,100322.53
2019-04-26T06:10:54.109Z,100321.47
2019-04-26T06:14:15.317Z,100329.47
2019-04-26T06:17:12.605Z,100354.94
2019-04-26T06:20:06.865Z,100355.33
2019-04-26T06:23:09.603Z,100342.65
2019-04-26T06:25:59.429Z,100358.74
2019-04-26T06:29:07.390Z,100356.52
2019-04-26T06:31:56.099Z,100346.35
2019-04-26T06:34:48.221Z,100344.50
2019-04-26T06:37:33.250Z,100341.63
2019-04-26T06:40:42.023Z,100337.19
2019-04-26T06:43:20.268Z,100336.84
2019-04-26T06:46:36.039Z,100325.58
2019-04-26T06:50:07.964Z,100327.67
2019-04-26T06:52:46.286Z,100321.94
2019-04-26T06:55:36.650Z,100322.81
2019-04-26T06:58:37.595Z,100330.31
2019-04-26T07:01:24.041Z,100334.64
2019-04-26T07:04:34.815Z,100343.02
2019-04-26T07:07:22.511Z,100346.45
2019-04-26T07:10:18.115Z,100349.55
2019-04-26T07:13:23.421Z,100356.30
2019-04-26T07:16:23.146Z,100354.66
2019-04-26T07:19:48.958Z,100354.95
2019-04-26T07:22:57.774Z,100352.98
2019-04-26T07:26:11.596Z,100352.81
2019-04-26T07:29:30.075Z,100345.07
2019-04-26T07:32:16.326Z,100352.84
2019-04-26T07:35:11.030Z,100328.16
2019-04-26T07:38:11.006Z,100308.07
2019-04-26T07:41:32.009Z,100301.30
2019-04-26T07:44:57.707Z,100364.69
2019-04-26T07:47:50.150Z,100360.36
2019-04-26T07:51:03.105Z,100352.36
2019-04-26T07:54:00.337Z,100357.09
2019-04-26T07:57:05.129Z,100392.33
2019-04-26T08:00:08.673Z,100365.41
2019-04-26T08:03:15.100Z,100359.00
2019-04-26T08:06:02.985Z,100373.17
2019-04-26T08:08:41.180Z,100378.23
2019-04-26T08:11:23.009Z,100384.70
2019-04-26T08:14:17.437Z,100392.92
2019-04-26T08:17:30.363Z,100382.20
2019-04-26T08:20:19.662Z,100405.05
2019-04-26T08:22:54.128Z,100384.67
2019-04-26T08:25:26.218Z,100374.91
2019-04-26T08:27:58.491Z,100386.06
2019-04-26T08:30:30.447Z,100385.36
2019-04-26T08:33:07.803Z,100377.59
2019-04-26T08:35:36.729Z,100368.39
2019-04-26T08:38:16.375Z,100370.41
2019-04-26T08:40:42.431Z,100370.09
2019-04-26T08:43:27.301Z,100363.69
2019-04-26T08:46:28.359Z,100365.06
2019-04-26T08:49:19.726Z,100371.52
2019-04-26T08:51:55.564Z,100380.30
2019-04-26T08:54:28.057Z,100392.66
2019-04-26T08:57:06.521Z,100397.88
2019-04-26T08:59:45.511Z,100406.70
2019-04-26T09:02:40.158Z,100407.70
2019-04-26T09:05:34.298Z,100399.42
2019-04-26T09:08:06.751Z,100404.82
2019-04-26T09:10:39.314Z,100413.09
2019-04-26T09:13:13.424Z,100406.28
2019-04-26T09:16:13.100Z,100404.19
2019-04-26T09:18:51.265Z,100403.14
2019-04-26T09:21:19.225Z,100398.33
2019-04-26T09:24:08.431Z,100375.03
2019-04-26T09:26:46.602Z,100370.95
2019-04-26T09:29:43.088Z,100381.20
2019-04-26T09:32:24.240Z,100393.88
2019-04-26T09:34:54.372Z,100392.84
2019-04-26T09:37:24.606Z,100391.20
2019-04-26T09:39:55.056Z,100385.89
2019-04-26T09:42:44.804Z,100391.87
2019-04-26T09:45:28.842Z,100389.09
2019-04-26T09:48:03.403Z,100390.69
2019-04-26T09:50:40.526Z,100393.66
2019-04-26T09:53:10.931Z,100397.80
2019-04-26T09:55:41.715Z,100391.52
2019-04-26T09:58:13.665Z,100397.62
2019-04-26T10:00:48.604Z,100399.87
2019-04-26T10:03:16.990Z,100404.55
2019-04-26T10:05:47.761Z,100409.72
2019-04-26T10:08:18.204Z,100397.14
2019-04-26T10:10:51.659Z,100404.02
2019-04-26T10:13:40.402Z,100407.89
2019-04-26T10:16:42.460Z,100406.64
2019-04-26T10:19:16.691Z,100419.87
2019-04-26T10:21:46.989Z,100418.17
2019-04-26T10:24:17.642Z,100415.41
2019-04-26T10:26:48.068Z,100414.75
2019-04-26T10:29:21.610Z,100420.73
2019-04-26T10:31:51.799Z,100433.42
2019-04-26T10:34:23.560Z,100424.95
2019-04-26T10:36:56.841Z,100430.66
2019-04-26T10:39:28.615Z,100434.13
2019-04-26T10:41:59.266Z,100442.61
2019-04-26T10:44:29.804Z,100444.63
2019-04-26T10:47:04.372Z,100448.09
2019-04-26T10:49:47.784Z,100451.92
2019-04-26T10:52:41.209Z,100450.72
2019-04-26T10:55:32.040Z,100442.72
2019-04-26T10:58:21.032Z,100443.05
2019-04-26T11:00:54.137Z,100447.03
2019-04-26T11:03:24.590Z,100434.76
2019-04-26T11:05:56.017Z,100445.70
2019-04-26T11:08:27.518Z,100442.09
2019-04-26T11:10:58.200Z,100449.23
2019-04-26T11:13:28.962Z,100451.75
2019-04-26T11:16:02.355Z,100449.78
2019-04-26T11:18:31.562Z,100447.05
2019-04-26T11:21:01.987Z,100446.25
2019-04-26T11:23:32.386Z,100462.92
2019-04-26T11:26:03.126Z,100461.30
2019-04-26T11:28:33.639Z,100462.73
2019-04-26T11:31:04.552Z,100468.16
2019-04-26T11:33:44.406Z,100468.77
2019-04-26T11:36:08.683Z,100470.13
2019-04-26T11:38:40.886Z,100485.11
2019-04-26T11:41:11.410Z,100475.70
2019-04-26T11:43:42.436Z,100480.26
2019-04-26T11:46:13.137Z,100488.89
2019-04-26T11:48:43.654Z,100492.27
2019-04-26T11:51:14.457Z,100503.03
2019-04-26T11:53:46.159Z,100500.91
2019-04-26T11:56:17.343Z,100495.48
2019-04-26T11:58:47.894Z,100511.17
2019-04-26T12:01:20.143Z,100508.23
2019-04-26T12:04:11.552Z,100508.40
2019-04-26T12:07:00.330Z,100517.58
2019-04-26T12:09:40.216Z,100521.38
2019-04-26T12:12:13.033Z,100524.03
2019-04-26T12:14:43.070Z,100532.52
2019-04-26T12:17:15.544Z,100536.46
2019-04-26T12:19:48.171Z,100539.31
2019-04-26T12:22:20.096Z,100544.75
2019-04-26T12:24:51.112Z,100543.91
2019-04-26T12:27:22.212Z,100552.77
2019-04-26T12:29:53.374Z,100560.19
2019-04-26T12:32:24.124Z,100569.24
2019-04-26T12:34:56.753Z,100568.91
2019-04-26T12:37:28.188Z,100575.30
2019-04-26T12:39:58.999Z,100570.67
2019-04-26T12:42:30.422Z,100572.26
2019-04-26T12:45:24.581Z,100562.92
2019-04-26T12:47:57.539Z,100559.62
2019-04-26T12:50:29.433Z,100559.26
2019-04-26T12:53:00.434Z,100560.38
2019-04-26T12:55:30.844Z,100554.92
2019-04-26T12:58:04.065Z,100552.59
2019-04-26T13:00:37.635Z,100544.34
2019-04-26T13:03:19.420Z,100544.56
2019-04-26T13:05:39.410Z,100532.56
2019-04-26T13:08:13.082Z,100541.42
2019-04-26T13:11:07.414Z,100535.14
2019-04-26T13:13:51.005Z,100547.34
2019-04-26T13:16:40.439Z,100540.45
2019-04-26T13:19:19.892Z,100550.06
2019-04-26T13:21:50.650Z,100540.47
2019-04-26T13:24:21.053Z,100531.34
2019-04-26T13:26:52.197Z,100523.66
2019-04-26T13:29:22.437Z,100533.52
2019-04-26T13:31:52.728Z,100529.41
2019-04-26T13:34:23.579Z,100529.97
2019-04-26T13:36:53.870Z,100523.58
2019-04-26T13:39:24.407Z,100532.53
2019-04-26T13:42:03.026Z,100525.78
2019-04-26T13:44:45.509Z,100527.03
2019-04-26T13:47:36.226Z,100524.94
2019-04-26T13:50:13.196Z,100533.38
2019-04-26T13:52:43.635Z,100535.03
2019-04-26T13:55:14.015Z,100532.81
2019-04-26T13:57:46.000Z,100537.06
2019-04-26T14:00:23.729Z,100556.48
2019-04-26T14:02:54.177Z,100555.37
2019-04-26T14:05:25.684Z,100564.40
2019-04-26T14:07:55.994Z,100557.66
2019-04-26T14:10:26.668Z,100570.64
2019-04-26T14:12:56.907Z,100571.09
2019-04-26T14:15:27.832Z,100580.96
2019-04-26T14:18:00.224Z,100585.31
2019-04-26T14:20:30.549Z,100589.48
2019-04-26T14:23:15.255Z,100589.78
2019-04-26T14:26:25.647Z,100592.45
2019-04-26T14:28:58.167Z,100587.75
2019-04-26T14:31:28.042Z,100588.69
2019-04-26T14:34:01.155Z,100584.33
2019-04-26T14:36:30.614Z,100583.43
2019-04-26T14:39:05.954Z,100582.00
2019-04-26T14:41:34.008Z,100592.48
2019-04-26T14:44:14.765Z,100587.81
2019-04-26T14:46:48.163Z,100582.98
2019-04-26T14:49:11.288Z,100585.05
2019-04-26T14:51:42.462Z,100597.80
2019-04-26T14:54:13.678Z,100598.43
2019-04-26T14:56:52.012Z,100600.78
2019-04-26T14:59:20.108Z,100598.05
2019-04-26T15:02:12.956Z,100604.75
2019-04-26T15:04:53.370Z,100611.48
2019-04-26T15:07:23.623Z,100620.16
2019-04-26T15:09:53.950Z,100629.64
2019-04-26T15:12:24.689Z,100635.59
2019-04-26T15:14:56.720Z,100640.23
2019-04-26T15:17:26.769Z,100635.14
2019-04-26T15:19:56.996Z,100629.75
2019-04-26T15:22:27.727Z,100635.14
2019-04-26T15:24:57.921Z,100640.61
2019-04-26T15:27:32.138Z,100634.33
2019-04-26T15:30:05.019Z,100633.17
2019-04-26T15:32:37.446Z,100635.17
2019-04-26T15:35:09.724Z,100628.47
2019-04-26T15:37:40.126Z,100638.84
2019-04-26T15:40:35.158Z,100638.59
2019-04-26T15:43:16.164Z,100652.27
2019-04-26T15:46:12.489Z,100651.78
2019-04-26T15:49:13.828Z,100654.58
2019-04-26T15:51:45.113Z,100660.05
2019-04-26T15:54:17.928Z,100657.56
2019-04-26T15:56:49.305Z,100671.16
2019-04-26T15:59:22.771Z,100673.12
2019-04-26T16:01:52.219Z,100675.80
2019-04-26T16:04:23.909Z,100674.08
2019-04-26T16:06:54.857Z,100666.08
2019-04-26T16:09:25.558Z,100661.73
2019-04-26T16:11:55.850Z,100672.95
2019-04-26T16:14:31.403Z,100672.38
2019-04-26T16:17:03.164Z,100670.79
2019-04-26T16:19:30.868Z,100686.84
2019-04-26T16:22:02.976Z,100677.72
2019-04-26T16:24:34.496Z,100678.23
2019-04-26T16:27:06.315Z,100679.75
2019-04-26T16:30:00.423Z,100678.41
2019-04-26T16:32:58.833Z,100676.91
2019-04-26T16:35:28.829Z,100676.91
2019-04-26T16:38:19.977Z,100688.75
2019-04-26T16:40:53.419Z,100684.97
2019-04-26T16:43:36.591Z,100679.73
2019-04-26T16:45:59.721Z,100682.28
2019-04-26T16:48:30.119Z,100677.89
2019-04-26T16:51:08.385Z,100682.80
2019-04-26T16:53:46.261Z,100689.92
2019-04-26T16:56:05.301Z,100697.63
2019-04-26T16:58:38.389Z,100694.09
2019-04-26T17:01:10.149Z,100682.98
2019-04-26T17:03:46.495Z,100681.78
2019-04-26T17:06:15.776Z,100676.55
2019-04-26T17:08:50.098Z,100676.92
2019-04-26T17:11:18.014Z,100670.92
2019-04-26T17:13:53.467Z,100664.70
2019-04-26T17:16:22.467Z,100653.61
2019-04-26T17:18:55.652Z,100654.26
2019-04-26T17:21:27.629Z,100656.59
2019-04-26T17:24:25.156Z,100649.30
2019-04-26T17:27:05.481Z,100681.51
2019-04-26T17:29:34.435Z,100681.51
2019-04-26T17:32:09.122Z,100689.20
2019-04-26T17:34:40.436Z,100706.38
2019-04-26T17:37:16.563Z,100703.96
2019-04-26T17:39:47.657Z,100723.20
2019-04-26T17:42:16.037Z,100723.20
2019-04-26T17:44:46.586Z,100724.55
2019-04-26T17:47:16.861Z,100718.58
2019-04-26T17:49:47.170Z,100718.58
2019-04-26T17:52:17.469Z,100712.02
2019-04-26T17:54:49.659Z,100738.37
2019-04-26T17:57:32.106Z,100738.37
2019-04-26T18:00:06.400Z,100752.91
2019-04-26T18:02:40.374Z,100750.00
2019-04-26T18:05:00.870Z,100750.00
2019-04-26T18:07:41.424Z,100771.14
2019-04-26T18:10:04.674Z,100771.14
2019-04-26T18:12:39.356Z,100763.58
2019-04-26T18:15:09.567Z,100754.45
2019-04-26T18:17:55.824Z,100770.80
2019-04-26T18:20:41.399Z,100787.88
2019-04-26T18:23:15.458Z,100787.88
2019-04-26T18:25:46.529Z,100770.57
2019-04-26T18:28:17.108Z,100765.92
2019-04-26T18:30:47.779Z,100765.92
2019-04-26T18:33:22.485Z,100763.38
2019-04-26T18:35:55.701Z,100761.09
2019-04-26T18:38:24.912Z,100761.09
2019-04-26T18:41:00.548Z,100764.75
2019-04-26T18:43:28.891Z,100764.25
2019-04-26T18:46:07.672Z,100776.04
2019-04-26T18:48:42.232Z,100777.77
2019-04-26T18:51:13.070Z,100781.78
2019-04-26T18:54:18.945Z,100784.46
2019-04-26T18:56:57.776Z,100790.08
2019-04-26T18:59:29.121Z,100801.50
2019-04-26T19:02:00.878Z,100805.03
2019-04-26T19:04:31.661Z,100805.44
2019-04-26T19:07:04.374Z,100788.50
2019-04-26T19:09:56.771Z,100788.50
2019-04-26T19:12:09.178Z,100784.21
2019-04-26T19:15:04.184Z,100786.41
2019-04-26T19:17:53.954Z,100792.00
2019-04-26T19:20:46.473Z,100790.54
2019-04-26T19:23:18.300Z,100786.40
2019-04-26T19:25:48.944Z,100779.08
2019-04-26T19:28:19.791Z,100776.86
2019-04-26T19:30:52.992Z,100779.05
2019-04-26T19:33:22.904Z,100778.69
2019-04-26T19:35:53.672Z,100784.53
2019-04-26T19:38:24.371Z,100785.23
2019-04-26T19:40:55.003Z,100781.83
2019-04-26T19:43:31.092Z,100778.42
2019-04-26T19:46:07.867Z,100787.27
2019-04-26T19:49:03.539Z,100787.27
2019-04-26T19:52:03.452Z,100784.59
2019-04-26T19:54:38.434Z,100793.84
2019-04-26T19:57:13.526Z,100798.47
2019-04-26T19:59:44.595Z,100802.84
2019-04-26T20:02:36.253Z,100796.77
2019-04-26T20:05:02.359Z,100786.63
2019-04-26T20:07:33.740Z,100769.72
2019-04-26T20:10:05.290Z,100768.63
2019-04-26T20:12:38.133Z,100773.82
2019-04-26T20:15:15.367Z,100779.54
2019-04-26T20:17:42.390Z,100776.50
2019-04-26T20:20:20.908Z,100777.10
2019-04-26T20:22:45.010Z,100789.75
2019-04-26T20:25:15.661Z,100797.53
2019-04-26T20:27:47.287Z,100784.16
2019-04-26T20:30:39.666Z,100771.63
2019-04-26T20:33:10.052Z,100776.09
2019-04-26T20:35:42.375Z,100767.94
2019-04-26T20:38:22.138Z,100763.28
2019-04-26T20:41:15.617Z,100778.84
2019-04-26T20:44:02.472Z,100781.52
2019-04-26T20:46:19.000Z,100792.02
2019-04-26T20:48:49.450Z,100791.25
2019-04-26T20:51:22.530Z,100808.07
2019-04-26T20:53:52.509Z,100798.10
2019-04-26T20:56:34.247Z,100776.09
2019-04-26T20:59:06.694Z,100761.98
2019-04-26T21:01:37.301Z,100760.48
2019-04-26T21:04:10.304Z,100764.12
2019-04-26T21:06:41.640Z,100778.84
2019-04-26T21:09:14.976Z,100782.98
2019-04-26T21:11:45.609Z,100787.48
2019-04-26T21:14:15.981Z,100780.42
2019-04-26T21:16:49.402Z,100778.48
2019-04-26T21:19:20.366Z,100781.16
2019-04-26T21:21:52.348Z,100788.21
2019-04-26T21:24:25.608Z,100781.76
2019-04-26T21:27:12.881Z,100779.57
2019-04-26T21:30:03.369Z,100791.00
2019-04-26T21:32:59.218Z,100795.01
2019-04-26T21:35:35.971Z,100798.78
2019-04-26T21:38:11.209Z,100795.27
2019-04-26T21:40:50.064Z,100786.42
2019-04-26T21:43:20.523Z,100782.54
2019-04-26T21:45:51.351Z,100786.42
2019-04-26T21:48:23.513Z,100795.55
2019-04-26T21:50:53.990Z,100795.06
2019-04-26T21:53:24.461Z,100808.44
2019-04-26T21:55:57.199Z,100811.69
2019-04-26T21:58:28.067Z,100806.58
2019-04-26T22:01:19.960Z,100806.20
2019-04-26T22:03:54.194Z,100805.55
2019-04-26T22:06:28.660Z,100809.42
2019-04-26T22:09:05.116Z,100807.61
2019-04-26T22:11:37.688Z,100827.19
2019-04-26T22:14:20.266Z,100818.02
2019-04-26T22:17:01.827Z,100833.62
2019-04-26T22:19:53.545Z,100838.48
2019-04-26T22:22:46.290Z,100847.93
2019-04-26T22:25:17.864Z,100853.20
2019-04-26T22:27:48.167Z,100851.38
2019-04-26T22:30:28.427Z,100851.25
2019-04-26T22:32:58.343Z,100848.83
2019-04-26T22:35:37.267Z,100845.25
2019-04-26T22:38:08.412Z,100848.98
2019-04-26T22:40:38.910Z,100841.42
2019-04-26T22:43:29.388Z,100840.28
2019-04-26T22:46:29.878Z,100830.79
2019-04-26T22:49:06.564Z,100832.12
2019-04-26T22:51:39.946Z,100827.02
2019-04-26T22:54:12.290Z,100815.78
2019-04-26T22:56:45.581Z,100812.37
2019-04-26T22:59:15.308Z,100807.98
2019-04-26T23:01:57.680Z,100804.81
2019-04-26T23:04:48.133Z,100790.42
2019-04-26T23:07:23.316Z,100790.40
2019-04-26T23:09:55.538Z,100795.58
2019-04-26T23:12:33.945Z,100800.55
2019-04-26T23:15:30.237Z,100823.87
2019-04-26T23:18:24.153Z,100832.73
2019-04-26T23:21:03.421Z,100824.23
2019-04-26T23:23:37.187Z,100810.53
2019-04-26T23:26:06.221Z,100795.34
2019-04-26T23:28:44.172Z,100794.41
2019-04-26T23:31:15.462Z,100798.13
2019-04-26T23:33:47.194Z,100809.31
2019-04-26T23:36:19.460Z,100811.84
2019-04-26T23:38:49.559Z,100817.33
2019-04-26T23:41:20.595Z,100814.17
2019-04-26T23:43:56.464Z,100791.20
2019-04-26T23:46:26.000Z,100788.16
2019-04-26T23:48:55.209Z,100777.09
2019-04-26T23:51:26.248Z,100780.00
2019-04-26T23:53:57.931Z,100766.64
2019-04-26T23:56:28.402Z,100759.30
2019-04-26T23:58:58.740Z,100746.42
